Aérodrome :
LOGIN :

S'inscrire | Disclaimer

   EN    FR    IT 

 










Légende :    VFR   VFR Marginal   IFR   IFR Intensif   IFR Très Intensif
Visi : 
Plafond : 
>= 8 km
>= 3000ft
5 à 8 km
1000 à 3000 ft
1500m à 5 km
500 à 1000 ft
800 à 1500m
200 à 500 ft
< 800m
< 200 ft
Symboles :   Orages  Brouillard  Fortes neiges  Fortes précipitations  Vent > 20 kt
SIGMETs :   Divers  Orages  Givrage  Turbulence  Onde Orograph.  Cendres Volcan.






- Altitude de l'aérodrome : 97 ft
- Code IATA : EBJ


EKEB - Esbjerg

DERNIER METAR :
  • 221620Z AUTO 26022KT 9999 BKN031/// BKN140/// 07/03 Q1002

METARs EXPIRÉS :
  • 221550Z AUTO 26026G36KT 9999 SCT027/// 07/02 Q1002
  • 221520Z AUTO 26023KT 9999 SCT033/// 07/03 Q1002
  • 221450Z AUTO 26025KT 9999 FEW031/// 06/03 Q1001
  • 221420Z AUTO 26026G37KT 9999 BKN087/// 06/02 Q1001
  • 221350Z AUTO 27024G36KT 9999 BKN021/// BKN120/// 06/03 Q1001

TAF TAF EKEB
Valide du 22 à 15h jusqu'au 22 à 23h UTC


221401Z 2215/2223 26025KT 9999 BKN020
TEMPO 2215/2223 27030G45KT 4000 SHRA SCT020CB



MET'MAP, la Météo Aéronautique d'un coup d'oeil ! - Copyright ORBIFLY Décembre 2007 - Disclaimer

ORBIFLY MET'MAP TEAM :

Programmation & Développement : Alexandra Zaïnal
Sur une idée originale de : Baudouin d'Aumeries
Assistance à la programmation : Marc-Olivier Méhu
Soutien technique & logistique : Manuel Goepfert

Contact : metmap@orbifly.com




SOURCES & CREDITS :

   NOAA